sensor_id;sensor_type;location;lat;lon;timestamp;pressure;altitude;pressure_sealevel;temperature;humidity
75699;BME280;64313;51.018;13.742;2023-09-18T00:01:36;99475.22;;;20.32;63.33
75699;BME280;64313;51.018;13.742;2023-09-18T00:04:05;99464.09;;;20.29;63.54
75699;BME280;64313;51.018;13.742;2023-09-18T00:06:30;99469.00;;;20.27;63.72
75699;BME280;64313;51.018;13.742;2023-09-18T00:08:55;99467.88;;;20.23;63.94
75699;BME280;64313;51.018;13.742;2023-09-18T00:11:21;99470.03;;;20.21;63.93
75699;BME280;64313;51.018;13.742;2023-09-18T00:13:46;99460.81;;;20.17;64.13
75699;BME280;64313;51.018;13.742;2023-09-18T00:16:11;99457.56;;;20.15;64.22
75699;BME280;64313;51.018;13.742;2023-09-18T00:18:38;99456.47;;;20.10;64.49
75699;BME280;64313;51.018;13.742;2023-09-18T00:21:03;99457.81;;;20.08;64.50
75699;BME280;64313;51.018;13.742;2023-09-18T00:23:29;99455.63;;;20.05;64.46
75699;BME280;64313;51.018;13.742;2023-09-18T00:25:54;99452.38;;;20.03;64.77
75699;BME280;64313;51.018;13.742;2023-09-18T00:28:20;99448.28;;;20.00;65.00
75699;BME280;64313;51.018;13.742;2023-09-18T00:30:49;99452.09;;;19.99;65.15
75699;BME280;64313;51.018;13.742;2023-09-18T00:33:15;99447.22;;;19.96;65.49
75699;BME280;64313;51.018;13.742;2023-09-18T00:35:45;99450.19;;;19.95;65.55
75699;BME280;64313;51.018;13.742;2023-09-18T00:38:10;99449.63;;;19.93;65.84
75699;BME280;64313;51.018;13.742;2023-09-18T00:40:35;99453.69;;;19.90;65.81
75699;BME280;64313;51.018;13.742;2023-09-18T00:43:01;99450.44;;;19.88;65.75
75699;BME280;64313;51.018;13.742;2023-09-18T00:45:27;99446.34;;;19.85;65.80
75699;BME280;64313;51.018;13.742;2023-09-18T00:47:53;99439.56;;;19.83;65.96
75699;BME280;64313;51.018;13.742;2023-09-18T00:50:19;99432.78;;;19.80;65.76
75699;BME280;64313;51.018;13.742;2023-09-18T00:52:47;99429.25;;;19.80;66.15
75699;BME280;64313;51.018;13.742;2023-09-18T00:55:12;99439.84;;;19.76;66.17
75699;BME280;64313;51.018;13.742;2023-09-18T00:57:38;99438.47;;;19.74;66.34
75699;BME280;64313;51.018;13.742;2023-09-18T01:00:04;99429.78;;;19.72;66.49
75699;BME280;64313;51.018;13.742;2023-09-18T01:02:31;99425.72;;;19.69;66.60
75699;BME280;64313;51.018;13.742;2023-09-18T01:04:57;99425.97;;;19.67;66.67
75699;BME280;64313;51.018;13.742;2023-09-18T01:07:22;99421.84;;;19.65;66.85
75699;BME280;64313;51.018;13.742;2023-09-18T01:09:48;99416.97;;;19.62;67.33
75699;BME280;64313;51.018;13.742;2023-09-18T01:12:28;99411.00;;;19.60;67.08
75699;BME280;64313;51.018;13.742;2023-09-18T01:15:07;99412.09;;;19.59;67.45
75699;BME280;64313;51.018;13.742;2023-09-18T01:17:37;99396.63;;;19.54;67.74
75699;BME280;64313;51.018;13.742;2023-09-18T01:20:04;99400.41;;;19.53;67.85
75699;BME280;64313;51.018;13.742;2023-09-18T01:22:31;99396.59;;;19.49;68.45
75699;BME280;64313;51.018;13.742;2023-09-18T01:24:57;99396.84;;;19.48;68.41
75699;BME280;64313;51.018;13.742;2023-09-18T01:27:22;99394.97;;;19.43;68.24
75699;BME280;64313;51.018;13.742;2023-09-18T01:29:50;99386.28;;;19.41;68.55
75699;BME280;64313;51.018;13.742;2023-09-18T01:32:17;99387.63;;;19.38;68.55
75699;BME280;64313;51.018;13.742;2023-09-18T01:34:46;99385.16;;;19.37;68.44
75699;BME280;64313;51.018;13.742;2023-09-18T01:37:14;99376.22;;;19.36;68.55
75699;BME280;64313;51.018;13.742;2023-09-18T01:39:41;99384.88;;;19.33;68.70
75699;BME280;64313;51.018;13.742;2023-09-18T01:42:07;99377.00;;;19.32;68.94
75699;BME280;64313;51.018;13.742;2023-09-18T01:44:35;99373.19;;;19.28;69.18
75699;BME280;64313;51.018;13.742;2023-09-18T01:47:04;99367.25;;;19.26;69.04
75699;BME280;64313;51.018;13.742;2023-09-18T01:49:35;99367.50;;;19.24;68.90
75699;BME280;64313;51.018;13.742;2023-09-18T01:52:02;99364.22;;;19.22;69.18
75699;BME280;64313;51.018;13.742;2023-09-18T01:54:28;99362.06;;;19.19;69.19
75699;BME280;64313;51.018;13.742;2023-09-18T01:56:53;99358.78;;;19.17;69.48
75699;BME280;64313;51.018;13.742;2023-09-18T01:59:20;99352.00;;;19.14;69.54
75699;BME280;64313;51.018;13.742;2023-09-18T02:01:46;99354.16;;;19.12;69.93
75699;BME280;64313;51.018;13.742;2023-09-18T02:04:12;99358.22;;;19.10;70.16
75699;BME280;64313;51.018;13.742;2023-09-18T02:06:37;99356.03;;;19.07;70.38
75699;BME280;64313;51.018;13.742;2023-09-18T02:09:03;99367.16;;;19.05;70.24
75699;BME280;64313;51.018;13.742;2023-09-18T02:11:34;99368.22;;;19.04;70.67
75699;BME280;64313;51.018;13.742;2023-09-18T02:13:59;99357.66;;;19.02;70.49
75699;BME280;64313;51.018;13.742;2023-09-18T02:16:26;99347.88;;;19.01;70.66
75699;BME280;64313;51.018;13.742;2023-09-18T02:18:54;99350.59;;;19.01;70.55
75699;BME280;64313;51.018;13.742;2023-09-18T02:21:20;99343.81;;;18.99;70.83
75699;BME280;64313;51.018;13.742;2023-09-18T02:23:48;99343.25;;;18.97;70.75
75699;BME280;64313;51.018;13.742;2023-09-18T02:26:13;99340.00;;;18.95;71.09
75699;BME280;64313;51.018;13.742;2023-09-18T02:28:39;99338.38;;;18.94;70.99
75699;BME280;64313;51.018;13.742;2023-09-18T02:31:04;99334.84;;;18.93;71.36
75699;BME280;64313;51.018;13.742;2023-09-18T02:33:30;99340.53;;;18.92;71.02
75699;BME280;64313;51.018;13.742;2023-09-18T02:35:55;99328.06;;;18.91;71.27
75699;BME280;64313;51.018;13.742;2023-09-18T02:38:21;99336.72;;;18.88;71.58
75699;BME280;64313;51.018;13.742;2023-09-18T02:40:46;99333.47;;;18.86;71.57
75699;BME280;64313;51.018;13.742;2023-09-18T02:43:11;99325.34;;;18.86;71.42
75699;BME280;64313;51.018;13.742;2023-09-18T02:45:37;99317.75;;;18.83;71.78
75699;BME280;64313;51.018;13.742;2023-09-18T02:48:02;99320.72;;;18.81;72.00
75699;BME280;64313;51.018;13.742;2023-09-18T02:50:28;99321.78;;;18.80;71.85
75699;BME280;64313;51.018;13.742;2023-09-18T02:52:54;99322.03;;;18.78;72.23
75699;BME280;64313;51.018;13.742;2023-09-18T02:55:19;99319.88;;;18.75;72.09
75699;BME280;64313;51.018;13.742;2023-09-18T02:57:44;99302.78;;;18.75;72.29
75699;BME280;64313;51.018;13.742;2023-09-18T03:00:10;99304.13;;;18.72;72.41
75699;BME280;64313;51.018;13.742;2023-09-18T03:02:36;99319.81;;;18.70;72.60
75699;BME280;64313;51.018;13.742;2023-09-18T03:05:01;99313.84;;;18.68;72.84
75699;BME280;64313;51.018;13.742;2023-09-18T03:07:28;99314.94;;;18.67;72.90
75699;BME280;64313;51.018;13.742;2023-09-18T03:09:56;99313.28;;;18.66;72.87
75699;BME280;64313;51.018;13.742;2023-09-18T03:12:21;99313.53;;;18.65;73.07
75699;BME280;64313;51.018;13.742;2023-09-18T03:14:48;99318.13;;;18.64;73.25
75699;BME280;64313;51.018;13.742;2023-09-18T03:17:13;99319.47;;;18.62;73.10
75699;BME280;64313;51.018;13.742;2023-09-18T03:19:39;99322.19;;;18.62;73.24
75699;BME280;64313;51.018;13.742;2023-09-18T03:22:04;99311.63;;;18.60;72.91
75699;BME280;64313;51.018;13.742;2023-09-18T03:24:30;99301.88;;;18.59;73.16
75699;BME280;64313;51.018;13.742;2023-09-18T03:26:55;99304.00;;;18.57;73.23
75699;BME280;64313;51.018;13.742;2023-09-18T03:29:20;99303.22;;;18.56;73.42
75699;BME280;64313;51.018;13.742;2023-09-18T03:31:46;99298.06;;;18.55;73.43
75699;BME280;64313;51.018;13.742;2023-09-18T03:34:12;99286.69;;;18.53;73.81
75699;BME280;64313;51.018;13.742;2023-09-18T03:36:38;99291.53;;;18.51;73.72
75699;BME280;64313;51.018;13.742;2023-09-18T03:39:05;99279.09;;;18.50;73.68
75699;BME280;64313;51.018;13.742;2023-09-18T03:41:30;99277.72;;;18.47;74.09
75699;BME280;64313;51.018;13.742;2023-09-18T03:44:00;99271.75;;;18.45;74.05
75699;BME280;64313;51.018;13.742;2023-09-18T03:46:26;99290.16;;;18.43;73.90
75699;BME280;64313;51.018;13.742;2023-09-18T03:48:52;99278.75;;;18.41;74.00
75699;BME280;64313;51.018;13.742;2023-09-18T03:51:17;99278.19;;;18.39;74.45
75699;BME280;64313;51.018;13.742;2023-09-18T03:53:44;99279.53;;;18.36;74.25
75699;BME280;64313;51.018;13.742;2023-09-18T03:56:09;99274.13;;;18.36;74.46
75699;BME280;64313;51.018;13.742;2023-09-18T03:58:35;99279.00;;;18.34;74.35
75699;BME280;64313;51.018;13.742;2023-09-18T04:01:01;99268.44;;;18.33;74.54
75699;BME280;64313;51.018;13.742;2023-09-18T04:03:26;99268.97;;;18.30;74.55
75699;BME280;64313;51.018;13.742;2023-09-18T04:05:51;99271.91;;;18.28;74.60
75699;BME280;64313;51.018;13.742;2023-09-18T04:08:17;99264.88;;;18.27;74.59
75699;BME280;64313;51.018;13.742;2023-09-18T04:10:42;99262.44;;;18.26;74.68
75699;BME280;64313;51.018;13.742;2023-09-18T04:13:09;99261.34;;;18.27;74.92
75699;BME280;64313;51.018;13.742;2023-09-18T04:15:34;99258.09;;;18.25;74.62
75699;BME280;64313;51.018;13.742;2023-09-18T04:18:04;99254.31;;;18.26;74.80
75699;BME280;64313;51.018;13.742;2023-09-18T04:20:30;99250.25;;;18.23;75.03
75699;BME280;64313;51.018;13.742;2023-09-18T04:25:43;99251.56;;;18.21;75.25
75699;BME280;64313;51.018;13.742;2023-09-18T04:28:08;99247.50;;;18.18;75.37
75699;BME280;64313;51.018;13.742;2023-09-18T04:30:33;99245.88;;;18.17;75.75
75699;BME280;64313;51.018;13.742;2023-09-18T04:32:59;99238.03;;;18.15;75.43
75699;BME280;64313;51.018;13.742;2023-09-18T04:35:24;99232.84;;;18.14;75.49
75699;BME280;64313;51.018;13.742;2023-09-18T04:37:50;99233.94;;;18.13;75.61
75699;BME280;64313;51.018;13.742;2023-09-18T04:40:16;99218.81;;;18.12;75.61
75699;BME280;64313;51.018;13.742;2023-09-18T04:42:41;99229.63;;;18.12;75.77
75699;BME280;64313;51.018;13.742;2023-09-18T04:45:08;99240.69;;;18.10;75.72
75699;BME280;64313;51.018;13.742;2023-09-18T04:47:34;99244.47;;;18.09;76.04
75699;BME280;64313;51.018;13.742;2023-09-18T04:50:01;99235.53;;;18.09;75.88
75699;BME280;64313;51.018;13.742;2023-09-18T04:52:32;99235.53;;;18.09;75.83
75699;BME280;64313;51.018;13.742;2023-09-18T04:54:57;99233.66;;;18.09;75.90
75699;BME280;64313;51.018;13.742;2023-09-18T04:57:23;99230.13;;;18.09;75.79
75699;BME280;64313;51.018;13.742;2023-09-18T04:59:48;99223.09;;;18.08;75.64
75699;BME280;64313;51.018;13.742;2023-09-18T05:02:14;99225.78;;;18.08;76.07
75699;BME280;64313;51.018;13.742;2023-09-18T05:04:39;99222.00;;;18.09;76.12
75699;BME280;64313;51.018;13.742;2023-09-18T05:07:05;99222.00;;;18.09;76.04
75699;BME280;64313;51.018;13.742;2023-09-18T05:09:30;99221.19;;;18.08;76.00
75699;BME280;64313;51.018;13.742;2023-09-18T05:11:56;99212.28;;;18.08;76.10
75699;BME280;64313;51.018;13.742;2023-09-18T05:14:23;99212.28;;;18.08;76.09
75699;BME280;64313;51.018;13.742;2023-09-18T05:16:48;99216.88;;;18.07;76.07
75699;BME280;64313;51.018;13.742;2023-09-18T05:19:13;99221.47;;;18.07;76.15
75699;BME280;64313;51.018;13.742;2023-09-18T05:21:39;99221.47;;;18.07;75.70
75699;BME280;64313;51.018;13.742;2023-09-18T05:24:04;99209.81;;;18.06;75.67
75699;BME280;64313;51.018;13.742;2023-09-18T05:26:30;99210.66;;;18.07;75.85
75699;BME280;64313;51.018;13.742;2023-09-18T05:28:56;99200.66;;;18.07;75.76
75699;BME280;64313;51.018;13.742;2023-09-18T05:31:21;99187.94;;;18.08;75.82
75699;BME280;64313;51.018;13.742;2023-09-18T05:33:47;99184.13;;;18.09;76.05
75699;BME280;64313;51.018;13.742;2023-09-18T05:36:13;99182.28;;;18.09;76.03
75699;BME280;64313;51.018;13.742;2023-09-18T05:38:39;99189.31;;;18.10;76.04
75699;BME280;64313;51.018;13.742;2023-09-18T05:41:04;99192.56;;;18.12;75.92
75699;BME280;64313;51.018;13.742;2023-09-18T05:43:30;99193.94;;;18.15;75.91
75699;BME280;64313;51.018;13.742;2023-09-18T05:45:56;99196.91;;;18.19;75.80
75699;BME280;64313;51.018;13.742;2023-09-18T05:48:21;99195.56;;;18.21;75.66
75699;BME280;64313;51.018;13.742;2023-09-18T05:50:47;99189.63;;;18.24;75.86
75699;BME280;64313;51.018;13.742;2023-09-18T05:53:13;99181.53;;;18.29;75.82
75699;BME280;64313;51.018;13.742;2023-09-18T05:55:38;99186.44;;;18.32;75.93
75699;BME280;64313;51.018;13.742;2023-09-18T05:58:04;99178.34;;;18.37;75.79
75699;BME280;64313;51.018;13.742;2023-09-18T06:00:32;99173.22;;;18.41;76.18
75699;BME280;64313;51.018;13.742;2023-09-18T06:02:58;99177.28;;;18.44;76.05
75699;BME280;64313;51.018;13.742;2023-09-18T06:05:24;99172.69;;;18.49;75.95
75699;BME280;64313;51.018;13.742;2023-09-18T06:07:50;99162.19;;;18.53;75.96
75699;BME280;64313;51.018;13.742;2023-09-18T06:10:16;99161.38;;;18.57;75.97
75699;BME280;64313;51.018;13.742;2023-09-18T06:12:43;99151.38;;;18.63;75.97
75699;BME280;64313;51.018;13.742;2023-09-18T06:15:10;99146.78;;;18.69;75.88
75699;BME280;64313;51.018;13.742;2023-09-18T06:17:39;99147.38;;;18.76;75.70
75699;BME280;64313;51.018;13.742;2023-09-18T06:20:06;99142.53;;;18.83;75.67
75699;BME280;64313;51.018;13.742;2023-09-18T06:22:36;99133.88;;;18.91;75.58
75699;BME280;64313;51.018;13.742;2023-09-18T06:25:03;99141.22;;;19.01;75.34
75699;BME280;64313;51.018;13.742;2023-09-18T06:27:28;99137.41;;;19.12;74.73
75699;BME280;64313;51.018;13.742;2023-09-18T06:29:54;99132.53;;;19.24;74.42
75699;BME280;64313;51.018;13.742;2023-09-18T06:32:19;99126.59;;;19.38;73.78
75699;BME280;64313;51.018;13.742;2023-09-18T06:34:44;99130.13;;;19.43;73.63
75699;BME280;64313;51.018;13.742;2023-09-18T06:37:10;99131.19;;;19.48;73.33
75699;BME280;64313;51.018;13.742;2023-09-18T06:39:38;99127.41;;;19.49;73.08
75699;BME280;64313;51.018;13.742;2023-09-18T06:42:04;99123.03;;;19.53;73.20
75699;BME280;64313;51.018;13.742;2023-09-18T06:44:29;99112.19;;;19.53;72.99
75699;BME280;64313;51.018;13.742;2023-09-18T06:46:54;99110.03;;;19.55;73.03
75699;BME280;64313;51.018;13.742;2023-09-18T06:49:20;99105.72;;;19.59;73.00
75699;BME280;64313;51.018;13.742;2023-09-18T06:51:45;99101.09;;;19.64;72.96
75699;BME280;64313;51.018;13.742;2023-09-18T06:54:11;99098.38;;;19.70;73.16
75699;BME280;64313;51.018;13.742;2023-09-18T06:56:36;99089.69;;;19.73;72.98
75699;BME280;64313;51.018;13.742;2023-09-18T06:59:01;99095.94;;;19.78;73.31
75699;BME280;64313;51.018;13.742;2023-09-18T07:01:27;99089.41;;;19.84;72.84
75699;BME280;64313;51.018;13.742;2023-09-18T07:03:53;99091.84;;;19.91;72.53
75699;BME280;64313;51.018;13.742;2023-09-18T07:06:19;99079.88;;;19.97;72.54
75699;BME280;64313;51.018;13.742;2023-09-18T07:08:46;99077.69;;;20.04;71.86
75699;BME280;64313;51.018;13.742;2023-09-18T07:11:11;99077.09;;;20.13;71.98
75699;BME280;64313;51.018;13.742;2023-09-18T07:13:37;99072.44;;;20.18;71.79
75699;BME280;64313;51.018;13.742;2023-09-18T07:16:03;99069.97;;;20.27;71.44
75699;BME280;64313;51.018;13.742;2023-09-18T07:18:28;99077.84;;;20.34;71.19
75699;BME280;64313;51.018;13.742;2023-09-18T07:20:54;99070.16;;;20.41;70.65
75699;BME280;64313;51.018;13.742;2023-09-18T07:23:19;99071.47;;;20.48;70.24
75699;BME280;64313;51.018;13.742;2023-09-18T07:25:47;99064.69;;;20.56;70.25
75699;BME280;64313;51.018;13.742;2023-09-18T07:28:13;99066.03;;;20.64;70.22
75699;BME280;64313;51.018;13.742;2023-09-18T07:30:42;99058.34;;;20.71;69.37
75699;BME280;64313;51.018;13.742;2023-09-18T07:33:12;99055.31;;;20.78;69.53
75699;BME280;64313;51.018;13.742;2023-09-18T07:35:40;99065.88;;;20.84;69.88
75699;BME280;64313;51.018;13.742;2023-09-18T07:38:05;99048.16;;;20.92;68.74
75699;BME280;64313;51.018;13.742;2023-09-18T07:40:31;99055.41;;;21.02;68.99
75699;BME280;64313;51.018;13.742;2023-09-18T07:42:56;99044.50;;;21.07;68.71
75699;BME280;64313;51.018;13.742;2023-09-18T07:45:23;99044.16;;;21.13;68.45
75699;BME280;64313;51.018;13.742;2023-09-18T07:47:49;99038.41;;;21.20;68.45
75699;BME280;64313;51.018;13.742;2023-09-18T07:50:14;99031.28;;;21.24;68.08
75699;BME280;64313;51.018;13.742;2023-09-18T07:52:39;99034.47;;;21.31;68.35
75699;BME280;64313;51.018;13.742;2023-09-18T07:55:05;99036.66;;;21.34;67.36
75699;BME280;64313;51.018;13.742;2023-09-18T07:57:31;99035.25;;;21.42;66.94
75699;BME280;64313;51.018;13.742;2023-09-18T07:59:59;99030.56;;;21.48;67.28
75699;BME280;64313;51.018;13.742;2023-09-18T08:02:37;99025.59;;;21.55;67.13
75699;BME280;64313;51.018;13.742;2023-09-18T08:05:04;99018.97;;;21.61;66.41
75699;BME280;64313;51.018;13.742;2023-09-18T08:07:30;99020.56;;;21.67;66.31
75699;BME280;64313;51.018;13.742;2023-09-18T08:09:56;99016.06;;;21.76;66.41
75699;BME280;64313;51.018;13.742;2023-09-18T08:12:21;99004.53;;;21.85;65.99
75699;BME280;64313;51.018;13.742;2023-09-18T08:14:46;99010.44;;;21.92;65.26
75699;BME280;64313;51.018;13.742;2023-09-18T08:17:14;99007.59;;;22.02;64.61
75699;BME280;64313;51.018;13.742;2023-09-18T08:19:39;99015.13;;;22.10;64.50
75699;BME280;64313;51.018;13.742;2023-09-18T08:22:05;99021.56;;;22.19;64.54
75699;BME280;64313;51.018;13.742;2023-09-18T08:24:30;99020.41;;;22.25;64.34
75699;BME280;64313;51.018;13.742;2023-09-18T08:26:55;99022.97;;;22.36;63.11
75699;BME280;64313;51.018;13.742;2023-09-18T08:29:22;99018.19;;;22.46;63.13
75699;BME280;64313;51.018;13.742;2023-09-18T08:31:47;99021.03;;;22.55;63.08
75699;BME280;64313;51.018;13.742;2023-09-18T08:34:13;99018.75;;;22.62;61.82
75699;BME280;64313;51.018;13.742;2023-09-18T08:36:38;99015.88;;;22.73;62.09
75699;BME280;64313;51.018;13.742;2023-09-18T08:39:04;99007.84;;;22.81;61.18
75699;BME280;64313;51.018;13.742;2023-09-18T08:41:33;99012.91;;;22.88;59.62
75699;BME280;64313;51.018;13.742;2023-09-18T08:44:03;99000.53;;;22.96;59.27
75699;BME280;64313;51.018;13.742;2023-09-18T08:46:32;99003.47;;;22.99;59.76
75699;BME280;64313;51.018;13.742;2023-09-18T08:49:00;99004.72;;;23.07;59.01
75699;BME280;64313;51.018;13.742;2023-09-18T08:51:26;99000.78;;;23.13;59.93
75699;BME280;64313;51.018;13.742;2023-09-18T08:53:54;98997.16;;;23.18;58.88
75699;BME280;64313;51.018;13.742;2023-09-18T08:56:21;98997.38;;;23.21;57.91
75699;BME280;64313;51.018;13.742;2023-09-18T08:58:46;99000.81;;;23.27;58.78
75699;BME280;64313;51.018;13.742;2023-09-18T09:01:12;98992.25;;;23.33;58.76
75699;BME280;64313;51.018;13.742;2023-09-18T09:03:39;98991.53;;;23.42;58.87
75699;BME280;64313;51.018;13.742;2023-09-18T09:06:06;98989.72;;;23.51;58.19
75699;BME280;64313;51.018;13.742;2023-09-18T09:08:31;98973.16;;;23.61;58.57
75699;BME280;64313;51.018;13.742;2023-09-18T09:10:57;98976.19;;;23.73;58.44
75699;BME280;64313;51.018;13.742;2023-09-18T09:13:24;98964.25;;;23.83;56.75
75699;BME280;64313;51.018;13.742;2023-09-18T09:15:54;98962.94;;;23.94;57.32
75699;BME280;64313;51.018;13.742;2023-09-18T09:18:21;98958.69;;;24.02;57.12
75699;BME280;64313;51.018;13.742;2023-09-18T09:23:22;98968.75;;;24.15;56.48
75699;BME280;64313;51.018;13.742;2023-09-18T09:25:48;98963.69;;;24.23;56.23
75699;BME280;64313;51.018;13.742;2023-09-18T09:28:13;98968.53;;;24.26;53.66
75699;BME280;64313;51.018;13.742;2023-09-18T09:30:39;98963.28;;;24.29;53.43
75699;BME280;64313;51.018;13.742;2023-09-18T09:33:05;98968.91;;;24.33;53.61
75699;BME280;64313;51.018;13.742;2023-09-18T09:35:36;98966.69;;;24.35;53.58
75699;BME280;64313;51.018;13.742;2023-09-18T09:40:33;98967.19;;;24.37;53.71
75699;BME280;64313;51.018;13.742;2023-09-18T09:43:00;98957.88;;;24.38;52.45
75699;BME280;64313;51.018;13.742;2023-09-18T09:45:28;98959.16;;;24.40;53.11
75699;BME280;64313;51.018;13.742;2023-09-18T09:47:56;98949.53;;;24.43;53.00
75699;BME280;64313;51.018;13.742;2023-09-18T09:50:22;98950.88;;;24.46;53.48
75699;BME280;64313;51.018;13.742;2023-09-18T09:52:52;98952.47;;;24.47;52.76
75699;BME280;64313;51.018;13.742;2023-09-18T09:55:28;98943.19;;;24.48;53.20
75699;BME280;64313;51.018;13.742;2023-09-18T09:57:59;98952.19;;;24.48;52.51
75699;BME280;64313;51.018;13.742;2023-09-18T10:00:37;98955.09;;;24.52;53.45
75699;BME280;64313;51.018;13.742;2023-09-18T10:03:12;98963.78;;;24.54;53.22
75699;BME280;64313;51.018;13.742;2023-09-18T10:05:41;98979.88;;;24.55;52.89
75699;BME280;64313;51.018;13.742;2023-09-18T10:08:14;98993.84;;;24.54;52.94
75699;BME280;64313;51.018;13.742;2023-09-18T10:10:55;98992.75;;;24.55;52.89
75699;BME280;64313;51.018;13.742;2023-09-18T10:13:41;98974.59;;;24.59;53.75
75699;BME280;64313;51.018;13.742;2023-09-18T10:16:09;98979.34;;;24.67;53.42
75699;BME280;64313;51.018;13.742;2023-09-18T10:24:25;98975.97;;;24.93;53.94
75699;BME280;64313;51.018;13.742;2023-09-18T10:27:00;98966.88;;;25.06;55.08
75699;BME280;64313;51.018;13.742;2023-09-18T10:29:26;98966.31;;;25.18;53.13
75699;BME280;64313;51.018;13.742;2023-09-18T10:31:53;98960.25;;;25.30;53.13
75699;BME280;64313;51.018;13.742;2023-09-18T10:34:20;98962.69;;;25.40;51.68
75699;BME280;64313;51.018;13.742;2023-09-18T10:36:47;98955.34;;;25.49;49.90
75699;BME280;64313;51.018;13.742;2023-09-18T10:39:13;98954.25;;;25.59;49.58
75699;BME280;64313;51.018;13.742;2023-09-18T10:41:39;98955.09;;;25.68;49.41
75699;BME280;64313;51.018;13.742;2023-09-18T10:44:07;98955.88;;;25.77;49.19
75699;BME280;64313;51.018;13.742;2023-09-18T10:46:33;98947.75;;;25.86;50.02
75699;BME280;64313;51.018;13.742;2023-09-18T10:48:59;98950.16;;;25.96;49.11
75699;BME280;64313;51.018;13.742;2023-09-18T10:51:26;98941.47;;;26.03;49.46
75699;BME280;64313;51.018;13.742;2023-09-18T10:53:52;98929.25;;;26.09;49.13
75699;BME280;64313;51.018;13.742;2023-09-18T10:56:21;98936.81;;;26.12;48.07
75699;BME280;64313;51.018;13.742;2023-09-18T10:58:46;98938.91;;;26.15;48.20
75699;BME280;64313;51.018;13.742;2023-09-18T11:01:12;98934.72;;;26.18;45.97
75699;BME280;64313;51.018;13.742;2023-09-18T11:03:38;98930.03;;;26.18;48.24
75699;BME280;64313;51.018;13.742;2023-09-18T11:06:05;98937.94;;;26.20;47.63
75699;BME280;64313;51.018;13.742;2023-09-18T11:08:35;98936.34;;;26.19;48.41
75699;BME280;64313;51.018;13.742;2023-09-18T11:11:10;98941.81;;;26.19;49.08
75699;BME280;64313;51.018;13.742;2023-09-18T11:13:45;98941.31;;;26.17;49.18
75699;BME280;64313;51.018;13.742;2023-09-18T11:19:16;98951.94;;;26.09;48.72
75699;BME280;64313;51.018;13.742;2023-09-18T11:21:38;98949.84;;;26.06;48.65
75699;BME280;64313;51.018;13.742;2023-09-18T11:24:06;98954.53;;;26.06;48.27
75699;BME280;64313;51.018;13.742;2023-09-18T11:26:39;98953.72;;;26.05;48.75
75699;BME280;64313;51.018;13.742;2023-09-18T11:29:06;98957.28;;;26.06;48.69
75699;BME280;64313;51.018;13.742;2023-09-18T11:31:55;98947.13;;;26.06;48.32
75699;BME280;64313;51.018;13.742;2023-09-18T11:34:29;98948.41;;;26.09;48.92
75699;BME280;64313;51.018;13.742;2023-09-18T11:37:22;98950.19;;;26.14;49.66
75699;BME280;64313;51.018;13.742;2023-09-18T11:39:48;98951.94;;;26.18;49.60
75699;BME280;64313;51.018;13.742;2023-09-18T11:42:19;98957.28;;;26.23;49.82
75699;BME280;64313;51.018;13.742;2023-09-18T11:44:49;98963.06;;;26.30;51.20
75699;BME280;64313;51.018;13.742;2023-09-18T11:47:19;98959.22;;;26.40;50.26
75699;BME280;64313;51.018;13.742;2023-09-18T11:49:52;98955.03;;;26.51;49.89
75699;BME280;64313;51.018;13.742;2023-09-18T11:52:20;98950.34;;;26.61;48.18
75699;BME280;64313;51.018;13.742;2023-09-18T11:54:47;98948.91;;;26.72;49.39
75699;BME280;64313;51.018;13.742;2023-09-18T11:57:13;98947.28;;;26.80;47.45
75699;BME280;64313;51.018;13.742;2023-09-18T11:59:40;98947.22;;;26.88;48.35
75699;BME280;64313;51.018;13.742;2023-09-18T12:02:11;98942.53;;;26.97;49.03
75699;BME280;64313;51.018;13.742;2023-09-18T12:04:41;98943.31;;;27.07;49.81
75699;BME280;64313;51.018;13.742;2023-09-18T12:07:07;98942.50;;;27.15;47.76
75699;BME280;64313;51.018;13.742;2023-09-18T12:09:34;98939.28;;;27.22;47.31
75699;BME280;64313;51.018;13.742;2023-09-18T12:12:00;98934.06;;;27.29;47.35
75699;BME280;64313;51.018;13.742;2023-09-18T12:14:31;98926.91;;;27.36;48.53
75699;BME280;64313;51.018;13.742;2023-09-18T12:16:57;98926.09;;;27.45;47.86
75699;BME280;64313;51.018;13.742;2023-09-18T12:19:22;98930.72;;;27.53;47.76
75699;BME280;64313;51.018;13.742;2023-09-18T12:21:48;98930.53;;;27.58;47.59
75699;BME280;64313;51.018;13.742;2023-09-18T12:24:21;98931.94;;;27.64;48.25
75699;BME280;64313;51.018;13.742;2023-09-18T12:26:47;98933.22;;;27.67;47.84
75699;BME280;64313;51.018;13.742;2023-09-18T12:29:15;98928.19;;;27.69;47.57
75699;BME280;64313;51.018;13.742;2023-09-18T12:31:40;98931.41;;;27.71;47.11
75699;BME280;64313;51.018;13.742;2023-09-18T12:34:27;98940.63;;;27.75;47.04
75699;BME280;64313;51.018;13.742;2023-09-18T12:36:53;98926.22;;;27.78;46.34
75699;BME280;64313;51.018;13.742;2023-09-18T12:39:20;98939.59;;;27.79;46.13
75699;BME280;64313;51.018;13.742;2023-09-18T12:41:47;98938.63;;;27.84;46.55
75699;BME280;64313;51.018;13.742;2023-09-18T12:44:13;98939.25;;;27.90;47.23
75699;BME280;64313;51.018;13.742;2023-09-18T12:46:41;98936.75;;;27.97;48.20
75699;BME280;64313;51.018;13.742;2023-09-18T12:49:16;98938.88;;;28.00;49.22
75699;BME280;64313;51.018;13.742;2023-09-18T12:51:42;98940.47;;;28.01;47.78
75699;BME280;64313;51.018;13.742;2023-09-18T12:54:07;98943.53;;;27.99;47.93
75699;BME280;64313;51.018;13.742;2023-09-18T12:56:32;98939.50;;;27.97;47.38
75699;BME280;64313;51.018;13.742;2023-09-18T12:58:58;98938.59;;;27.93;47.42
75699;BME280;64313;51.018;13.742;2023-09-18T13:01:24;98942.81;;;27.90;47.60
75699;BME280;64313;51.018;13.742;2023-09-18T13:03:53;98943.00;;;27.85;47.39
75699;BME280;64313;51.018;13.742;2023-09-18T13:06:19;98942.53;;;27.83;47.90